Time;durP1;ratioP1;P1;durP2;ratioP2;P2;SDS_P1;SDS_P2;PMS_P1;PMS_P2;Temp;Humidity;BMP_temperature;BMP_pressure;BME280_temperature;BME280_humidity;BME280_pressure;Samples;Min_cycle;Max_cycle;Signal;HPM_P1;HPM_P2
2021/09/24 00:00:53;;;;;;;;;;;23.20;55.40;;;;;;5076299;28;20016;-63
2021/09/24 00:03:20;;;;;;;;;;;23.20;55.40;;;;;;5063230;28;19924;-63
2021/09/24 00:05:47;;;;;;;;;;;23.20;55.30;;;;;;5070856;28;19973;-63
2021/09/24 00:08:14;;;;;;;;;;;23.20;55.30;;;;;;5076479;28;19936;-63
2021/09/24 00:10:42;;;;;;;;;;;23.20;55.30;;;;;;5083865;28;20371;-63
2021/09/24 00:13:09;;;;;;;;;;;23.20;55.20;;;;;;5077000;28;20278;-63
2021/09/24 00:15:36;;;;;;;;;;;23.20;55.20;;;;;;5066580;28;19925;-63
2021/09/24 00:18:03;;;;;;;;;;;23.20;55.20;;;;;;5073066;28;20435;-63
2021/09/24 00:20:30;;;;;;;;;;;23.20;55.20;;;;;;5076236;28;19947;-64
2021/09/24 00:22:57;;;;;;;;;;;23.20;55.10;;;;;;5071614;28;19978;-63
2021/09/24 00:25:24;;;;;;;;;;;23.20;55.10;;;;;;5091677;27;19925;-63
2021/09/24 00:27:51;;;;;;;;;;;23.20;55.10;;;;;;5061518;28;19939;-63
2021/09/24 00:30:18;;;;;;;;;;;23.20;55.00;;;;;;5076034;28;19932;-63
2021/09/24 00:32:45;;;;;;;;;;;23.20;55.00;;;;;;5073324;28;19924;-63
2021/09/24 00:35:12;;;;;;;;;;;23.20;55.00;;;;;;5074944;28;19924;-63
2021/09/24 00:37:39;;;;;;;;;;;23.20;55.00;;;;;;5074625;28;20342;-63
2021/09/24 00:40:07;;;;;;;;;;;23.20;54.90;;;;;;5057884;28;20380;-63
2021/09/24 00:42:34;;;;;;;;;;;23.20;54.80;;;;;;5073552;28;19978;-63
2021/09/24 00:45:02;;;;;;;;;;;23.20;54.80;;;;;;5075700;28;19928;-63
2021/09/24 00:47:29;;;;;;;;;;;23.20;54.80;;;;;;5074192;28;19947;-63
2021/09/24 00:49:56;;;;;;;;;;;23.20;54.70;;;;;;5073985;28;20010;-63
2021/09/24 00:52:23;;;;;;;;;;;23.20;54.70;;;;;;5074706;28;19924;-63
2021/09/24 00:54:51;;;;;;;;;;;23.20;54.70;;;;;;5065788;28;20366;-63
2021/09/24 00:57:19;;;;;;;;;;;23.20;54.70;;;;;;5075466;28;19947;-63
2021/09/24 00:59:47;;;;;;;;;;;23.20;54.60;;;;;;5075083;28;19936;-63
2021/09/24 01:02:14;;;;;;;;;;;23.20;54.60;;;;;;5075218;28;19924;-63
2021/09/24 01:04:41;;;;;;;;;;;23.20;54.60;;;;;;5074092;28;19974;-63
2021/09/24 01:07:10;;;;;;;;;;;23.20;54.60;;;;;;5075127;28;19924;-63
2021/09/24 01:09:38;;;;;;;;;;;23.20;54.50;;;;;;5083438;28;19925;-63
2021/09/24 01:12:05;;;;;;;;;;;23.20;54.50;;;;;;5084319;28;19929;-63
2021/09/24 01:14:32;;;;;;;;;;;23.20;54.50;;;;;;5068678;28;19964;-63
2021/09/24 01:17:00;;;;;;;;;;;23.20;54.50;;;;;;5061085;28;20304;-63
2021/09/24 01:19:27;;;;;;;;;;;23.20;54.50;;;;;;5067379;28;19977;-63
2021/09/24 01:21:54;;;;;;;;;;;23.20;54.40;;;;;;5084001;28;19925;-63
2021/09/24 01:24:21;;;;;;;;;;;23.20;54.40;;;;;;5059797;28;20333;-63
2021/09/24 01:26:50;;;;;;;;;;;23.20;54.40;;;;;;5074771;28;20563;-63
2021/09/24 01:29:17;;;;;;;;;;;23.20;54.40;;;;;;5073508;28;20383;-63
2021/09/24 01:31:44;;;;;;;;;;;23.20;54.40;;;;;;5073350;28;20387;-63
2021/09/24 01:34:11;;;;;;;;;;;23.20;54.40;;;;;;5074675;28;19999;-63
2021/09/24 01:36:38;;;;;;;;;;;23.20;54.30;;;;;;5074611;28;19924;-63
2021/09/24 01:39:07;;;;;;;;;;;23.20;54.30;;;;;;5092297;28;19970;-63
2021/09/24 01:41:38;;;;;;;;;;;23.20;54.30;;;;;;5073341;28;19928;-63
2021/09/24 01:44:05;;;;;;;;;;;23.20;54.30;;;;;;5071474;28;20414;-63
2021/09/24 01:46:35;;;;;;;;;;;23.20;54.20;;;;;;5073371;28;19925;-63
2021/09/24 01:49:02;;;;;;;;;;;23.20;54.30;;;;;;5074753;28;20330;-63
2021/09/24 01:51:29;;;;;;;;;;;23.20;54.20;;;;;;5066512;28;19925;-63
2021/09/24 01:53:56;;;;;;;;;;;23.20;54.20;;;;;;5072795;28;19974;-63
2021/09/24 01:56:23;;;;;;;;;;;23.20;54.20;;;;;;5073380;28;20459;-63
2021/09/24 01:58:50;;;;;;;;;;;23.20;54.20;;;;;;5073446;28;19924;-63
2021/09/24 02:01:17;;;;;;;;;;;23.20;54.20;;;;;;5073717;28;19924;-63
2021/09/24 02:03:45;;;;;;;;;;;23.20;54.20;;;;;;5073728;28;19971;-63
2021/09/24 02:06:12;;;;;;;;;;;23.20;54.10;;;;;;5073645;28;19928;-63
2021/09/24 02:08:39;;;;;;;;;;;23.20;54.20;;;;;;5081580;28;19924;-63
2021/09/24 02:11:10;;;;;;;;;;;23.20;54.10;;;;;;5081310;28;19935;-63
2021/09/24 02:13:38;;;;;;;;;;;23.20;54.10;;;;;;5066398;28;19925;-63
2021/09/24 02:16:06;;;;;;;;;;;23.20;54.10;;;;;;5068705;28;20022;-63
2021/09/24 02:18:33;;;;;;;;;;;23.20;54.10;;;;;;5074930;28;19985;-63
2021/09/24 02:21:00;;;;;;;;;;;23.20;54.10;;;;;;5071852;28;19939;-63
2021/09/24 02:23:27;;;;;;;;;;;23.20;54.10;;;;;;5073050;28;19925;-63
2021/09/24 02:25:54;;;;;;;;;;;23.20;54.10;;;;;;5073212;28;19925;-63
2021/09/24 02:28:21;;;;;;;;;;;23.20;54.10;;;;;;5074256;28;19925;-63
2021/09/24 02:30:48;;;;;;;;;;;23.20;54.10;;;;;;5087042;28;19970;-63
2021/09/24 02:33:15;;;;;;;;;;;23.20;54.10;;;;;;5071831;28;20335;-63
2021/09/24 02:35:42;;;;;;;;;;;23.20;54.10;;;;;;5071555;28;19924;-63
2021/09/24 02:38:09;;;;;;;;;;;23.20;54.00;;;;;;5071433;28;19924;-63
2021/09/24 02:40:36;;;;;;;;;;;23.20;54.10;;;;;;5071339;28;19924;-63
2021/09/24 02:43:03;;;;;;;;;;;23.20;54.00;;;;;;5072662;28;19925;-63
2021/09/24 02:45:30;;;;;;;;;;;23.20;54.00;;;;;;5057736;28;19931;-63
2021/09/24 02:47:57;;;;;;;;;;;23.20;54.00;;;;;;5078736;28;19924;-63
2021/09/24 02:50:24;;;;;;;;;;;23.20;54.00;;;;;;5089043;28;19925;-63
2021/09/24 02:52:51;;;;;;;;;;;23.20;54.00;;;;;;5076365;28;19925;-63
2021/09/24 02:55:21;;;;;;;;;;;23.20;54.00;;;;;;5003976;28;1943039;-63
2021/09/24 02:57:48;;;;;;;;;;;23.20;54.00;;;;;;5073224;28;19928;-63
2021/09/24 03:00:16;;;;;;;;;;;23.20;54.00;;;;;;5073822;28;19925;-63
2021/09/24 03:02:43;;;;;;;;;;;23.20;54.00;;;;;;5075181;28;19929;-63
2021/09/24 03:05:11;;;;;;;;;;;23.20;54.00;;;;;;5077512;28;20303;-63
2021/09/24 03:07:38;;;;;;;;;;;23.20;54.00;;;;;;5077441;28;19932;-63
2021/09/24 03:10:05;;;;;;;;;;;23.20;53.90;;;;;;5077372;28;19924;-63
2021/09/24 03:12:32;;;;;;;;;;;23.20;53.90;;;;;;5075899;28;19931;-63
2021/09/24 03:14:59;;;;;;;;;;;23.20;54.00;;;;;;5108382;28;19924;-63
2021/09/24 03:17:26;;;;;;;;;;;23.20;54.00;;;;;;5075619;28;19936;-63
2021/09/24 03:19:53;;;;;;;;;;;23.20;54.00;;;;;;5077229;28;19931;-63
2021/09/24 03:22:20;;;;;;;;;;;23.20;54.00;;;;;;5077292;28;19930;-63
2021/09/24 03:24:48;;;;;;;;;;;23.20;54.00;;;;;;5075692;28;20383;-63
2021/09/24 03:27:15;;;;;;;;;;;23.20;54.00;;;;;;5077170;28;19928;-63
2021/09/24 03:29:42;;;;;;;;;;;23.20;54.00;;;;;;5094837;28;19924;-63
2021/09/24 03:32:09;;;;;;;;;;;23.20;54.00;;;;;;5075530;28;19924;-63
2021/09/24 03:34:36;;;;;;;;;;;23.20;54.00;;;;;;5075635;28;20441;-63
2021/09/24 03:37:03;;;;;;;;;;;23.20;54.60;;;;;;5075971;28;19931;-63
2021/09/24 03:39:30;;;;;;;;;;;23.20;54.00;;;;;;5091293;28;19923;-63
2021/09/24 03:41:57;;;;;;;;;;;23.20;53.90;;;;;;5061463;28;19991;-63
2021/09/24 03:44:24;;;;;;;;;;;23.20;54.00;;;;;;5079189;28;19924;-63
2021/09/24 03:46:51;;;;;;;;;;;23.20;53.90;;;;;;5061656;28;20428;-63
2021/09/24 03:49:18;;;;;;;;;;;23.20;53.90;;;;;;5073122;28;19994;-63
2021/09/24 03:51:45;;;;;;;;;;;23.20;54.00;;;;;;5064888;28;20396;-63
2021/09/24 03:54:12;;;;;;;;;;;23.20;54.00;;;;;;5060073;28;19975;-63
2021/09/24 03:56:39;;;;;;;;;;;23.20;54.00;;;;;;5059687;28;19970;-63
2021/09/24 03:59:06;;;;;;;;;;;23.20;54.00;;;;;;5058895;28;19957;-63
2021/09/24 04:01:33;;;;;;;;;;;23.20;54.00;;;;;;5066565;28;19932;-63
2021/09/24 04:04:00;;;;;;;;;;;23.20;54.00;;;;;;5076193;28;20004;-63
2021/09/24 04:06:27;;;;;;;;;;;23.20;53.90;;;;;;5075152;28;20300;-63
2021/09/24 04:08:54;;;;;;;;;;;23.20;53.90;;;;;;5108539;27;19932;-63
2021/09/24 04:11:21;;;;;;;;;;;23.20;53.90;;;;;;5072226;28;19924;-63
2021/09/24 04:13:49;;;;;;;;;;;23.20;53.90;;;;;;5063410;28;20399;-63
2021/09/24 04:16:17;;;;;;;;;;;23.20;53.90;;;;;;5076005;28;19928;-63
2021/09/24 04:18:44;;;;;;;;;;;23.20;53.90;;;;;;5108176;28;19925;-63
2021/09/24 04:21:11;;;;;;;;;;;23.20;53.90;;;;;;5076204;28;19930;-63
2021/09/24 04:23:38;;;;;;;;;;;23.20;53.90;;;;;;5075089;28;20025;-63
2021/09/24 04:26:05;;;;;;;;;;;23.20;53.90;;;;;;5076231;28;19954;-63
2021/09/24 04:28:32;;;;;;;;;;;23.20;53.90;;;;;;5073309;28;19925;-63
2021/09/24 04:30:59;;;;;;;;;;;23.20;53.90;;;;;;5074807;28;19955;-63
2021/09/24 04:33:26;;;;;;;;;;;23.20;53.90;;;;;;5074554;28;19974;-63
2021/09/24 04:35:53;;;;;;;;;;;23.20;53.80;;;;;;5058941;28;20055;-63
2021/09/24 04:38:20;;;;;;;;;;;23.20;53.80;;;;;;5073393;28;19925;-63
2021/09/24 04:40:47;;;;;;;;;;;23.20;53.80;;;;;;5074106;28;19929;-63
2021/09/24 04:43:13;;;;;;;;;;;23.20;53.80;;;;;;5075995;28;20011;-63
2021/09/24 04:45:40;;;;;;;;;;;23.20;53.80;;;;;;5074425;28;19947;-63
2021/09/24 04:48:07;;;;;;;;;;;23.20;53.80;;;;;;5075644;28;19935;-63
2021/09/24 04:50:34;;;;;;;;;;;23.20;53.80;;;;;;5084393;28;19924;-63
2021/09/24 04:53:02;;;;;;;;;;;23.20;53.80;;;;;;5081690;28;19924;-63
2021/09/24 04:55:30;;;;;;;;;;;23.20;53.80;;;;;;5075366;28;19924;-63
2021/09/24 04:57:57;;;;;;;;;;;23.20;53.70;;;;;;5106189;28;19929;-63
2021/09/24 05:00:24;;;;;;;;;;;23.20;53.70;;;;;;5067890;28;19967;-63
2021/09/24 05:02:51;;;;;;;;;;;23.20;53.70;;;;;;5062916;28;19924;-63
2021/09/24 05:05:18;;;;;;;;;;;23.20;53.70;;;;;;5074518;28;19930;-63
2021/09/24 05:07:46;;;;;;;;;;;23.20;53.80;;;;;;5074988;28;19924;-63
2021/09/24 05:10:13;;;;;;;;;;;23.20;53.70;;;;;;5075300;28;19924;-63
2021/09/24 05:12:40;;;;;;;;;;;23.20;53.70;;;;;;5073954;28;19936;-63
2021/09/24 05:15:07;;;;;;;;;;;23.20;53.70;;;;;;5074474;28;19960;-63
2021/09/24 05:17:34;;;;;;;;;;;23.20;53.70;;;;;;5056515;28;19925;-63
2021/09/24 05:20:01;;;;;;;;;;;23.20;53.70;;;;;;5092676;28;19924;-63
2021/09/24 05:22:28;;;;;;;;;;;23.20;53.70;;;;;;5074827;28;19963;-63
2021/09/24 05:24:55;;;;;;;;;;;23.20;53.70;;;;;;5071747;28;20003;-63
2021/09/24 05:27:22;;;;;;;;;;;23.20;53.70;;;;;;5073786;28;19931;-63
2021/09/24 05:29:50;;;;;;;;;;;23.20;53.60;;;;;;5090883;28;19930;-63
2021/09/24 05:32:17;;;;;;;;;;;23.20;53.60;;;;;;5073466;28;19958;-63
2021/09/24 05:34:44;;;;;;;;;;;23.20;53.60;;;;;;5074098;28;19925;-63
2021/09/24 05:37:11;;;;;;;;;;;23.20;53.60;;;;;;5074282;28;19967;-63
2021/09/24 05:39:38;;;;;;;;;;;23.20;53.60;;;;;;5074551;28;20348;-63
2021/09/24 05:42:05;;;;;;;;;;;23.20;53.50;;;;;;5062884;28;19924;-63
2021/09/24 05:44:32;;;;;;;;;;;23.20;53.50;;;;;;5068462;28;20007;-63
2021/09/24 05:46:59;;;;;;;;;;;23.30;53.60;;;;;;5074388;28;19924;-63
2021/09/24 05:49:29;;;;;;;;;;;23.30;53.50;;;;;;5065835;28;19964;-63
2021/09/24 05:51:57;;;;;;;;;;;23.30;53.50;;;;;;5098148;27;20027;-63
2021/09/24 05:54:25;;;;;;;;;;;23.30;53.50;;;;;;5072746;28;19975;-63
2021/09/24 05:56:52;;;;;;;;;;;23.30;53.50;;;;;;5072857;28;19996;-63
2021/09/24 05:59:19;;;;;;;;;;;23.30;53.50;;;;;;5071945;28;20296;-63
2021/09/24 06:01:48;;;;;;;;;;;23.30;53.50;;;;;;5072582;28;20015;-63
2021/09/24 06:04:21;;;;;;;;;;;23.30;53.50;;;;;;5073979;28;19925;-63
2021/09/24 06:06:48;;;;;;;;;;;23.30;53.50;;;;;;5071628;28;20023;-63
2021/09/24 06:09:15;;;;;;;;;;;23.30;53.50;;;;;;5074032;28;20076;-64
2021/09/24 06:11:42;;;;;;;;;;;23.30;53.50;;;;;;5074239;28;20352;-63
2021/09/24 06:14:10;;;;;;;;;;;23.30;53.50;;;;;;5073277;28;19933;-63
2021/09/24 06:16:37;;;;;;;;;;;23.30;53.50;;;;;;5057528;28;19928;-63
2021/09/24 06:19:04;;;;;;;;;;;23.30;53.40;;;;;;5056705;28;19974;-63
2021/09/24 06:21:31;;;;;;;;;;;23.30;53.40;;;;;;5073346;28;20011;-63
2021/09/24 06:23:58;;;;;;;;;;;23.30;53.40;;;;;;5055564;28;20023;-63
2021/09/24 06:26:26;;;;;;;;;;;23.30;53.30;;;;;;5055799;28;20031;-63
2021/09/24 06:28:53;;;;;;;;;;;23.30;53.30;;;;;;5072189;28;20003;-63
2021/09/24 06:31:20;;;;;;;;;;;23.30;53.30;;;;;;5058895;28;19925;-63
2021/09/24 06:33:47;;;;;;;;;;;23.30;53.30;;;;;;5057223;28;20023;-63
2021/09/24 06:36:17;;;;;;;;;;;23.30;53.30;;;;;;5070375;28;19936;-63
2021/09/24 06:38:45;;;;;;;;;;;23.30;53.30;;;;;;5073910;28;20023;-63
2021/09/24 06:41:12;;;;;;;;;;;23.30;53.30;;;;;;5073893;28;19931;-63
2021/09/24 06:43:39;;;;;;;;;;;23.40;53.40;;;;;;5073380;28;19931;-63
2021/09/24 06:46:06;;;;;;;;;;;23.40;53.40;;;;;;5072057;28;19924;-63
2021/09/24 06:48:33;;;;;;;;;;;23.40;53.30;;;;;;5073654;28;20035;-63
2021/09/24 06:51:01;;;;;;;;;;;23.40;53.30;;;;;;5105497;28;20437;-63
2021/09/24 06:53:28;;;;;;;;;;;23.40;53.30;;;;;;5072365;28;19924;-63
2021/09/24 06:55:59;;;;;;;;;;;23.40;53.30;;;;;;5073327;28;19959;-63
2021/09/24 06:58:26;;;;;;;;;;;23.40;53.30;;;;;;5077931;28;20089;-63
2021/09/24 07:00:54;;;;;;;;;;;23.40;53.20;;;;;;5084696;28;19959;-63
2021/09/24 07:03:21;;;;;;;;;;;23.40;53.20;;;;;;5073440;28;19925;-64
2021/09/24 07:05:48;;;;;;;;;;;23.40;53.20;;;;;;5072232;28;19976;-63
2021/09/24 07:08:15;;;;;;;;;;;23.40;53.20;;;;;;5073576;28;20265;-64
2021/09/24 07:10:43;;;;;;;;;;;23.40;53.20;;;;;;5073568;28;19925;-63
2021/09/24 07:13:10;;;;;;;;;;;23.40;53.20;;;;;;5071387;28;19939;-63
2021/09/24 07:15:42;;;;;;;;;;;23.40;53.10;;;;;;5056687;28;19968;-63
2021/09/24 07:18:10;;;;;;;;;;;23.50;53.20;;;;;;5072028;28;19932;-63
2021/09/24 07:20:38;;;;;;;;;;;23.50;53.10;;;;;;5054308;28;19929;-63
2021/09/24 07:23:18;;;;;;;;;;;23.50;53.10;;;;;;5056228;28;19924;-63
2021/09/24 07:25:45;;;;;;;;;;;23.50;53.00;;;;;;5055752;28;20321;-63
2021/09/24 07:28:12;;;;;;;;;;;23.50;53.00;;;;;;5090682;28;19924;-63
2021/09/24 07:30:39;;;;;;;;;;;23.50;53.00;;;;;;5072061;28;19985;-63
2021/09/24 07:33:07;;;;;;;;;;;23.50;53.00;;;;;;5055050;28;20345;-63
2021/09/24 07:35:34;;;;;;;;;;;23.50;53.00;;;;;;5071133;28;20303;-63
2021/09/24 07:38:01;;;;;;;;;;;23.50;53.00;;;;;;5071614;28;20455;-63
2021/09/24 07:40:28;;;;;;;;;;;23.50;52.90;;;;;;5071616;28;19925;-63
2021/09/24 07:42:56;;;;;;;;;;;23.60;53.00;;;;;;5072768;28;20002;-63
2021/09/24 07:45:23;;;;;;;;;;;23.60;53.00;;;;;;5072937;28;19979;-63
2021/09/24 07:47:50;;;;;;;;;;;23.60;53.00;;;;;;5074143;28;19925;-63
2021/09/24 07:50:17;;;;;;;;;;;23.60;53.00;;;;;;5076790;28;19974;-63
2021/09/24 07:52:44;;;;;;;;;;;23.60;53.00;;;;;;5076479;28;19925;-63
2021/09/24 07:55:11;;;;;;;;;;;23.60;53.00;;;;;;5074811;28;19932;-63
2021/09/24 07:57:39;;;;;;;;;;;23.60;53.00;;;;;;5075164;28;20335;-63
2021/09/24 08:00:06;;;;;;;;;;;23.60;53.00;;;;;;5076689;28;19924;-63
2021/09/24 08:02:33;;;;;;;;;;;23.60;53.00;;;;;;5076177;28;19924;-63
2021/09/24 08:05:00;;;;;;;;;;;23.60;53.00;;;;;;5075141;28;19978;-63
2021/09/24 08:07:27;;;;;;;;;;;23.60;53.00;;;;;;5072669;28;20089;-63
2021/09/24 08:09:55;;;;;;;;;;;23.60;53.00;;;;;;5062381;28;19981;-63
2021/09/24 08:12:21;;;;;;;;;;;23.60;53.00;;;;;;5074890;28;20441;-63
2021/09/24 08:14:58;;;;;;;;;;;23.70;53.00;;;;;;5075001;28;19925;-63
2021/09/24 08:17:25;;;;;;;;;;;23.70;53.00;;;;;;5074455;28;19974;-63
2021/09/24 08:19:52;;;;;;;;;;;23.70;53.00;;;;;;5076023;28;19947;-63
2021/09/24 08:22:19;;;;;;;;;;;23.70;53.00;;;;;;5059640;28;19932;-63
2021/09/24 08:24:46;;;;;;;;;;;23.70;53.00;;;;;;5075795;28;19929;-63
2021/09/24 08:27:13;;;;;;;;;;;23.70;52.90;;;;;;5093381;28;20367;-63
2021/09/24 08:29:40;;;;;;;;;;;23.70;52.90;;;;;;5074914;28;19971;-63
2021/09/24 08:32:07;;;;;;;;;;;23.70;53.00;;;;;;5088093;28;19928;-63
2021/09/24 08:34:34;;;;;;;;;;;23.70;52.90;;;;;;5075796;28;20023;-63
2021/09/24 08:37:02;;;;;;;;;;;23.70;52.90;;;;;;5073400;28;19924;-63
2021/09/24 08:39:29;;;;;;;;;;;23.70;52.90;;;;;;5075548;28;20015;-63
2021/09/24 08:41:56;;;;;;;;;;;23.70;52.90;;;;;;5075465;28;19935;-63
2021/09/24 08:44:23;;;;;;;;;;;23.70;53.50;;;;;;5075470;28;20011;-63
2021/09/24 08:46:51;;;;;;;;;;;23.70;52.90;;;;;;5074245;28;20016;-63
2021/09/24 08:49:18;;;;;;;;;;;23.70;52.90;;;;;;5075426;28;19929;-63
2021/09/24 08:51:46;;;;;;;;;;;23.70;52.90;;;;;;5106682;28;19987;-63
2021/09/24 08:54:13;;;;;;;;;;;23.70;52.90;;;;;;5067195;28;20400;-63
2021/09/24 08:56:39;;;;;;;;;;;23.70;52.90;;;;;;5065996;28;19924;-63
2021/09/24 08:59:06;;;;;;;;;;;23.70;52.90;;;;;;5080859;28;19934;-63
2021/09/24 09:01:33;;;;;;;;;;;23.70;52.90;;;;;;5081010;28;19955;-63
2021/09/24 09:04:00;;;;;;;;;;;23.70;52.90;;;;;;5063322;28;19925;-63
2021/09/24 09:06:29;;;;;;;;;;;23.70;52.90;;;;;;5074111;28;20369;-63
2021/09/24 09:09:03;;;;;;;;;;;23.80;53.60;;;;;;5075406;28;19928;-63
2021/09/24 09:11:30;;;;;;;;;;;23.80;53.00;;;;;;5075010;28;19931;-64
2021/09/24 09:13:59;;;;;;;;;;;23.80;52.90;;;;;;5074050;28;20015;-64
2021/09/24 09:16:35;;;;;;;;;;;23.80;52.80;;;;;;5075126;28;20338;-63
2021/09/24 09:19:05;;;;;;;;;;;23.90;52.80;;;;;;5060666;28;19924;-64
2021/09/24 09:21:32;;;;;;;;;;;23.90;52.80;;;;;;5075081;28;19931;-64
2021/09/24 09:23:58;;;;;;;;;;;23.90;52.70;;;;;;5073690;28;20003;-63
2021/09/24 09:26:26;;;;;;;;;;;23.90;52.70;;;;;;5057452;28;19955;-63
2021/09/24 09:28:59;;;;;;;;;;;23.90;52.70;;;;;;5073756;28;20385;-64
2021/09/24 09:31:57;;;;;;;;;;;23.90;52.60;;;;;;5074580;28;19959;-63
2021/09/24 09:34:50;;;;;;;;;;;23.90;52.60;;;;;;5073685;28;20291;-63
2021/09/24 09:37:19;;;;;;;;;;;23.90;52.60;;;;;;5072080;28;19986;-63
2021/09/24 09:39:59;;;;;;;;;;;23.90;52.60;;;;;;5073479;28;19951;-62
2021/09/24 09:42:31;;;;;;;;;;;23.90;52.70;;;;;;5073443;28;19954;-61
2021/09/24 09:44:58;;;;;;;;;;;23.90;52.70;;;;;;5074721;28;20338;-62
2021/09/24 09:47:29;;;;;;;;;;;23.90;52.70;;;;;;5074356;28;20011;-61
2021/09/24 09:50:23;;;;;;;;;;;23.90;52.80;;;;;;5074498;28;19928;-62
2021/09/24 09:53:03;;;;;;;;;;;23.90;52.70;;;;;;5073402;28;19924;-61
2021/09/24 09:55:34;;;;;;;;;;;23.90;52.70;;;;;;5068690;28;20407;-61
2021/09/24 09:58:06;;;;;;;;;;;23.90;52.80;;;;;;5063224;28;20015;-61
2021/09/24 10:00:34;;;;;;;;;;;23.90;52.80;;;;;;5073015;28;19931;-61
2021/09/24 10:03:05;;;;;;;;;;;23.90;52.80;;;;;;5068955;28;19955;-62
2021/09/24 10:05:36;;;;;;;;;;;23.90;52.80;;;;;;5061888;28;19925;-62
2021/09/24 10:08:22;;;;;;;;;;;23.90;52.80;;;;;;5077224;28;20010;-63
2021/09/24 10:10:56;;;;;;;;;;;23.90;52.80;;;;;;5085031;28;19960;-62
2021/09/24 10:13:24;;;;;;;;;;;23.90;52.70;;;;;;5072494;28;19925;-62
2021/09/24 10:15:51;;;;;;;;;;;23.90;52.70;;;;;;5073162;28;19975;-63
2021/09/24 10:18:18;;;;;;;;;;;24.00;52.70;;;;;;5070256;28;19979;-63
2021/09/24 10:20:46;;;;;;;;;;;24.00;52.70;;;;;;5070423;28;19970;-63
2021/09/24 10:23:13;;;;;;;;;;;24.00;52.70;;;;;;5058967;28;19970;-63
2021/09/24 10:25:41;;;;;;;;;;;24.00;52.70;;;;;;5072728;28;20019;-63
2021/09/24 10:28:09;;;;;;;;;;;24.00;52.70;;;;;;5072856;28;20388;-62
2021/09/24 10:30:36;;;;;;;;;;;24.00;52.80;;;;;;5056630;28;20365;-63
2021/09/24 10:33:05;;;;;;;;;;;24.00;52.80;;;;;;5073017;28;19924;-63
2021/09/24 10:35:45;;;;;;;;;;;24.00;52.70;;;;;;5073292;28;19928;-62
2021/09/24 10:38:13;;;;;;;;;;;24.00;52.70;;;;;;5071614;28;20248;-62
2021/09/24 10:41:02;;;;;;;;;;;24.10;52.70;;;;;;5073017;28;20019;-62
2021/09/24 10:43:49;;;;;;;;;;;24.10;52.70;;;;;;5056283;28;19932;-62
2021/09/24 10:46:29;;;;;;;;;;;24.00;52.50;;;;;;5071000;28;20372;-62
2021/09/24 10:49:11;;;;;;;;;;;24.10;52.50;;;;;;5057263;28;19971;-63
2021/09/24 10:51:39;;;;;;;;;;;24.10;52.50;;;;;;5070770;28;19935;-63
2021/09/24 10:54:16;;;;;;;;;;;24.10;52.50;;;;;;5058883;28;19981;-63
2021/09/24 10:56:58;;;;;;;;;;;24.10;52.50;;;;;;5070584;28;19924;-62
2021/09/24 10:59:29;;;;;;;;;;;24.10;52.60;;;;;;5073263;28;19970;-63
2021/09/24 11:01:57;;;;;;;;;;;24.10;52.70;;;;;;5073377;28;19960;-63
2021/09/24 11:04:42;;;;;;;;;;;24.10;52.70;;;;;;5073147;28;19971;-63
2021/09/24 11:07:10;;;;;;;;;;;24.10;52.70;;;;;;5069349;28;19925;-63
2021/09/24 11:09:53;;;;;;;;;;;24.10;52.70;;;;;;5055882;28;20296;-62
2021/09/24 11:12:20;;;;;;;;;;;24.10;52.70;;;;;;5062091;28;20249;-63
2021/09/24 11:15:03;;;;;;;;;;;24.10;52.60;;;;;;5072108;28;19928;-63
2021/09/24 11:17:41;;;;;;;;;;;24.10;52.60;;;;;;5073128;28;19964;-63
2021/09/24 11:20:40;;;;;;;;;;;24.10;52.50;;;;;;5068457;28;19956;-63
2021/09/24 11:23:25;;;;;;;;;;;24.10;52.60;;;;;;5043537;28;20011;-63
2021/09/24 11:26:08;;;;;;;;;;;24.10;52.50;;;;;;5053237;28;20063;-63
2021/09/24 11:28:35;;;;;;;;;;;24.10;52.50;;;;;;5064199;28;20007;-63
2021/09/24 11:31:02;;;;;;;;;;;24.00;52.40;;;;;;5059284;28;19925;-63
2021/09/24 11:33:50;;;;;;;;;;;24.10;52.50;;;;;;5053262;28;20573;-63
2021/09/24 11:36:35;;;;;;;;;;;24.00;52.40;;;;;;5053240;28;20454;-63
2021/09/24 11:39:03;;;;;;;;;;;24.10;52.50;;;;;;5052831;28;20494;-63
2021/09/24 11:41:30;;;;;;;;;;;24.00;52.50;;;;;;5053149;28;19976;-63
2021/09/24 11:43:58;;;;;;;;;;;24.00;52.50;;;;;;5035612;28;19924;-63
2021/09/24 11:46:26;;;;;;;;;;;24.00;52.40;;;;;;5052931;28;19932;-63
2021/09/24 11:48:53;;;;;;;;;;;24.00;52.40;;;;;;5052896;28;19932;-63
2021/09/24 11:51:22;;;;;;;;;;;23.90;52.30;;;;;;5052840;28;19924;-63
2021/09/24 11:53:52;;;;;;;;;;;23.90;52.30;;;;;;5053007;28;19925;-62
2021/09/24 11:56:20;;;;;;;;;;;23.90;52.10;;;;;;5059797;28;19924;-63
2021/09/24 11:58:59;;;;;;;;;;;23.90;52.10;;;;;;5073977;28;20030;-61
2021/09/24 12:01:26;;;;;;;;;;;23.90;52.20;;;;;;5068281;28;19924;-61
2021/09/24 12:03:56;;;;;;;;;;;23.90;52.40;;;;;;5059739;28;19955;-61
2021/09/24 12:06:23;;;;;;;;;;;23.90;52.40;;;;;;5064834;28;20419;-61
2021/09/24 12:08:50;;;;;;;;;;;23.90;52.40;;;;;;5072108;28;19979;-61
2021/09/24 12:11:19;;;;;;;;;;;23.90;52.40;;;;;;5074282;28;19968;-61
2021/09/24 12:13:45;;;;;;;;;;;23.90;52.40;;;;;;5089784;28;20338;-61
2021/09/24 12:16:17;;;;;;;;;;;23.90;52.40;;;;;;5075940;28;19924;-61
2021/09/24 12:18:53;;;;;;;;;;;23.90;52.30;;;;;;5061665;28;20021;-61
2021/09/24 12:21:42;;;;;;;;;;;23.90;52.90;;;;;;5074422;28;20273;-61
2021/09/24 12:24:21;;;;;;;;;;;23.90;52.40;;;;;;5076133;28;19924;-61
2021/09/24 12:27:00;;;;;;;;;;;23.90;52.40;;;;;;5087498;28;19928;-61
2021/09/24 12:29:28;;;;;;;;;;;23.80;52.30;;;;;;5081052;28;20015;-61
2021/09/24 12:31:56;;;;;;;;;;;23.80;52.60;;;;;;5087499;28;19963;-61
2021/09/24 12:34:23;;;;;;;;;;;23.90;52.70;;;;;;5072059;28;20007;-61
2021/09/24 12:36:53;;;;;;;;;;;23.90;52.80;;;;;;5080910;28;20023;-61
2021/09/24 12:39:22;;;;;;;;;;;23.90;52.70;;;;;;5080957;28;19928;-63
2021/09/24 12:41:50;;;;;;;;;;;23.90;52.70;;;;;;5073056;28;19948;-62
2021/09/24 12:44:17;;;;;;;;;;;23.80;52.60;;;;;;5072842;28;19933;-62
2021/09/24 12:46:46;;;;;;;;;;;23.90;52.80;;;;;;5071637;28;19928;-61
2021/09/24 12:49:17;;;;;;;;;;;23.90;52.90;;;;;;5066321;28;19963;-61
2021/09/24 12:51:45;;;;;;;;;;;23.90;52.90;;;;;;5080727;28;19970;-62
2021/09/24 12:54:12;;;;;;;;;;;23.90;52.90;;;;;;5071851;28;19925;-62
2021/09/24 12:56:40;;;;;;;;;;;23.90;53.30;;;;;;5071913;28;19928;-62
2021/09/24 12:59:07;;;;;;;;;;;23.80;53.00;;;;;;5072819;28;20019;-61
2021/09/24 13:01:35;;;;;;;;;;;23.90;53.10;;;;;;5073952;28;19929;-50
2021/09/24 13:04:03;;;;;;;;;;;23.90;53.20;;;;;;5072795;28;20012;-63
2021/09/24 13:06:30;;;;;;;;;;;23.90;53.20;;;;;;5072222;28;19956;-64
2021/09/24 13:08:57;;;;;;;;;;;23.90;53.20;;;;;;5074081;28;20007;-63
2021/09/24 13:11:29;;;;;;;;;;;23.90;53.20;;;;;;5074738;28;20294;-63
2021/09/24 13:13:58;;;;;;;;;;;23.90;53.10;;;;;;5074781;28;19935;-63
2021/09/24 13:16:27;;;;;;;;;;;23.90;53.20;;;;;;5073040;28;19925;-64
2021/09/24 13:18:55;;;;;;;;;;;23.90;53.10;;;;;;5072138;28;20292;-61
2021/09/24 13:21:25;;;;;;;;;;;23.90;53.10;;;;;;5073926;28;20005;-62
2021/09/24 13:23:52;;;;;;;;;;;23.90;53.20;;;;;;5072255;28;19931;-61
2021/09/24 13:26:21;;;;;;;;;;;23.90;53.20;;;;;;5073703;28;20029;-59
2021/09/24 13:28:48;;;;;;;;;;;23.90;53.20;;;;;;5074270;28;19924;-58
2021/09/24 13:31:16;;;;;;;;;;;23.90;53.20;;;;;;5073131;28;19924;-59
2021/09/24 13:33:44;;;;;;;;;;;23.90;53.40;;;;;;5070901;28;19925;-59
2021/09/24 13:36:12;;;;;;;;;;;23.90;53.40;;;;;;5070896;28;19931;-58
2021/09/24 13:38:39;;;;;;;;;;;23.90;53.90;;;;;;5070934;28;19928;-58
2021/09/24 13:41:06;;;;;;;;;;;23.90;53.20;;;;;;5068902;28;19933;-59
2021/09/24 13:43:33;;;;;;;;;;;23.90;52.90;;;;;;5070619;28;20352;-59
2021/09/24 13:46:00;;;;;;;;;;;23.90;52.80;;;;;;5069499;28;19978;-60
2021/09/24 13:48:28;;;;;;;;;;;23.90;53.10;;;;;;5070117;28;19968;-62
2021/09/24 13:50:56;;;;;;;;;;;23.90;52.90;;;;;;5068650;28;20023;-51
2021/09/24 13:53:23;;;;;;;;;;;24.00;53.10;;;;;;5069194;28;19943;-49
2021/09/24 13:55:50;;;;;;;;;;;24.00;53.20;;;;;;5070572;28;20360;-61
2021/09/24 13:58:17;;;;;;;;;;;24.10;53.00;;;;;;5069385;28;20067;-58
2021/09/24 14:00:44;;;;;;;;;;;24.10;53.00;;;;;;5070168;28;19936;-58
2021/09/24 14:03:11;;;;;;;;;;;24.00;52.20;;;;;;5072174;28;19929;-58
2021/09/24 14:05:38;;;;;;;;;;;24.10;52.00;;;;;;5070712;28;19925;-58
2021/09/24 14:08:05;;;;;;;;;;;24.00;51.80;;;;;;5070321;28;20402;-58
2021/09/24 14:10:32;;;;;;;;;;;24.00;51.40;;;;;;5071585;28;19968;-56
2021/09/24 14:12:59;;;;;;;;;;;24.00;50.80;;;;;;5070782;28;19928;-60
2021/09/24 14:15:26;;;;;;;;;;;24.00;50.70;;;;;;5070118;28;19970;-58
2021/09/24 14:17:54;;;;;;;;;;;24.00;50.70;;;;;;5063301;28;19925;-58
2021/09/24 14:20:23;;;;;;;;;;;24.00;50.30;;;;;;5065218;28;19954;-59
2021/09/24 14:22:50;;;;;;;;;;;23.90;50.10;;;;;;5072940;28;19935;-59
2021/09/24 14:25:17;;;;;;;;;;;23.90;50.00;;;;;;5072882;28;19960;-57